Grampian Pride — GDDK — position and weather

sailwx.info

Track history (hours):
 
Tides and Currents Weather Stations Pressure Air Temp Water Temp Dewpoint Dewpoint Depression Visibility Wind Speed Wind Dir Waves Ship Positions

Grampian Pride

Last reported at 2015-Feb-20 20:27 UTC. Time now 2015-Mar-03 07:26 UTC.
Position N 59°03' E 005°02'.
Warning: this ship's position is 10 days out of date.

Length 42 m; draft 4.8 m.

Type: SAR. MMSI: 232843000.

Date/timePositionNaut miles runAvg speedWind from/ knotsBaromVisibWave heightAir tempDewpointWater temp
2015-Feb-20 20:27N 59°03' E 005°02'910.1
2015-Feb-20 19:34N 58°56' E 005°12'9 8.7
2015-Feb-20 18:33N 58°51' E 005°26'6 6.1
2015-Feb-20 17:31N 58°55' E 005°35'0 0.0
2015-Feb-20 16:31N 58°55' E 005°35'0 0.0
2015-Feb-20 15:33N 58°55' E 005°35'0 0.0
2015-Feb-20 14:25N 58°55' E 005°35'0 0.0
2015-Feb-20 13:33N 58°55' E 005°35'0 0.0
2015-Feb-20 12:33N 58°55' E 005°35'0 0.5
2015-Feb-20 11:33N 58°55' E 005°36'0 0.0
2015-Feb-20 10:33N 58°55' E 005°36'0 0.0
2015-Feb-20 09:33N 58°55' E 005°36'0 0.0
2015-Feb-20 08:33N 58°55' E 005°36'0 0.0
2015-Feb-20 07:33N 58°55' E 005°36'2 1.6
2015-Feb-20 06:34N 58°55' E 005°33'7 6.7
2015-Feb-20 05:33N 58°50' E 005°26'3 2.9
2015-Feb-20 04:33N 58°48' E 005°21'  
2015-Feb-12 08:31N 57°09' W 002°05'0 0.0
2015-Feb-12 07:33N 57°09' W 002°05'0 0.0
2015-Feb-12 06:33N 57°09' W 002°05'0 0.0
2015-Feb-12 05:33N 57°09' W 002°05'  
Track history (hours):
 
Tides and Currents Weather Stations Pressure Air Temp Water Temp Dewpoint Dewpoint Depression Visibility Wind Speed Wind Dir Waves Ship Positions

Grampian Pride

Last reported at 2015-Feb-20 20:27 UTC. Time now 2015-Mar-03 07:26 UTC.
Position N 59°03' E 005°02'.
Warning: this ship's position is 10 days out of date.

Length 42 m; draft 4.8 m.

Type: SAR. MMSI: 232843000.

Date/timePositionNaut miles runAvg speedWind from/ knotsBaromVisibWave heightAir tempDewpointWater temp
2015-Feb-20 20:27N 59°03' E 005°02'910.1
2015-Feb-20 19:34N 58°56' E 005°12'9 8.7
2015-Feb-20 18:33N 58°51' E 005°26'6 6.1
2015-Feb-20 17:31N 58°55' E 005°35'0 0.0
2015-Feb-20 16:31N 58°55' E 005°35'0 0.0
2015-Feb-20 15:33N 58°55' E 005°35'0 0.0
2015-Feb-20 14:25N 58°55' E 005°35'0 0.0
2015-Feb-20 13:33N 58°55' E 005°35'0 0.0
2015-Feb-20 12:33N 58°55' E 005°35'0 0.5
2015-Feb-20 11:33N 58°55' E 005°36'0 0.0
2015-Feb-20 10:33N 58°55' E 005°36'0 0.0
2015-Feb-20 09:33N 58°55' E 005°36'0 0.0
2015-Feb-20 08:33N 58°55' E 005°36'0 0.0
2015-Feb-20 07:33N 58°55' E 005°36'2 1.6
2015-Feb-20 06:34N 58°55' E 005°33'7 6.7
2015-Feb-20 05:33N 58°50' E 005°26'3 2.9
2015-Feb-20 04:33N 58°48' E 005°21'  
2015-Feb-12 08:31N 57°09' W 002°05'0 0.0
2015-Feb-12 07:33N 57°09' W 002°05'0 0.0
2015-Feb-12 06:33N 57°09' W 002°05'0 0.0
2015-Feb-12 05:33N 57°09' W 002°05'  

Dump ship's entire track history